createdAt,value
2018-06-21T00:02:00.621Z,11.03
2018-06-21T00:04:35.720Z,11.40
2018-06-21T00:07:10.735Z,12.67
2018-06-21T00:09:45.578Z,8.57
2018-06-21T00:12:20.551Z,8.57
2018-06-21T00:14:55.425Z,11.83
2018-06-21T00:17:30.264Z,10.60
2018-06-21T00:20:05.306Z,9.30
2018-06-21T00:22:40.154Z,7.57
2018-06-21T00:25:15.276Z,8.43
2018-06-21T00:27:49.976Z,7.90
2018-06-21T00:30:24.998Z,12.00
2018-06-21T00:32:59.990Z,13.13
2018-06-21T00:35:34.918Z,8.80
2018-06-21T00:38:09.798Z,12.50
2018-06-21T00:40:44.754Z,10.87
2018-06-21T00:43:19.626Z,9.20
2018-06-21T00:45:54.395Z,10.40
2018-06-21T00:48:29.264Z,11.90
2018-06-21T00:51:02.850Z,9.60
2018-06-21T00:53:37.780Z,11.70
2018-06-21T00:56:17.876Z,10.17
2018-06-21T00:58:52.871Z,11.07
2018-06-21T01:01:27.570Z,11.30
2018-06-21T01:04:02.593Z,10.17
2018-06-21T01:06:37.230Z,11.60
2018-06-21T01:09:12.328Z,15.20
2018-06-21T01:11:47.291Z,14.30
2018-06-21T01:14:22.123Z,11.63
2018-06-21T01:16:57.012Z,12.20
2018-06-21T01:19:32.055Z,12.63
2018-06-21T01:22:06.947Z,12.83
2018-06-21T01:24:42.127Z,10.57
2018-06-21T01:27:17.020Z,13.93
2018-06-21T01:29:51.594Z,14.30
2018-06-21T01:32:26.558Z,12.23
2018-06-21T01:35:01.807Z,13.30
2018-06-21T01:37:30.930Z,14.10
2018-06-21T01:40:06.755Z,13.37
2018-06-21T01:42:41.551Z,16.67
2018-06-21T01:45:16.377Z,14.60
2018-06-21T01:47:51.772Z,17.23
2018-06-21T01:50:26.812Z,22.40
2018-06-21T01:53:01.401Z,18.30
2018-06-21T01:55:36.223Z,20.93
2018-06-21T01:58:11.256Z,20.20
2018-06-21T02:00:46.089Z,16.40
2018-06-21T02:03:21.043Z,17.90
2018-06-21T02:05:55.955Z,18.00
2018-06-21T02:08:30.615Z,14.43
2018-06-21T02:11:05.663Z,20.13
2018-06-21T02:13:41.094Z,25.77
2018-06-21T02:16:15.986Z,25.53
2018-06-21T02:18:50.954Z,24.77
2018-06-21T02:21:25.804Z,27.20
2018-06-21T02:24:00.547Z,22.43
2018-06-21T02:26:35.402Z,23.30
2018-06-21T02:29:10.401Z,21.07
2018-06-21T02:31:45.065Z,20.23
2018-06-21T02:34:20.010Z,18.10
2018-06-21T02:36:55.180Z,15.70
2018-06-21T02:39:29.991Z,19.63
2018-06-21T02:42:05.479Z,17.90
2018-06-21T02:44:40.553Z,18.70
2018-06-21T02:47:15.536Z,15.53
2018-06-21T02:49:50.643Z,15.40
2018-06-21T02:52:25.443Z,14.03
2018-06-21T02:55:00.306Z,15.03
2018-06-21T02:57:35.266Z,15.00
2018-06-21T03:00:10.138Z,16.50
2018-06-21T03:02:45.079Z,19.03
2018-06-21T03:05:20.214Z,16.20
2018-06-21T03:07:54.536Z,15.37
2018-06-21T03:10:29.673Z,14.50
2018-06-21T03:13:04.545Z,15.97
2018-06-21T03:15:39.559Z,16.73
2018-06-21T03:18:14.474Z,18.70
2018-06-21T03:20:49.519Z,18.30
2018-06-21T03:23:24.313Z,16.97
2018-06-21T03:25:59.203Z,16.40
2018-06-21T03:28:34.125Z,16.70
2018-06-21T03:31:09.072Z,15.10
2018-06-21T03:33:44.135Z,16.90
2018-06-21T03:36:18.651Z,18.03
2018-06-21T03:38:53.538Z,16.80
2018-06-21T03:41:28.361Z,17.37
2018-06-21T03:44:03.141Z,15.80
2018-06-21T03:46:38.158Z,18.63
2018-06-21T03:49:14.450Z,19.03
2018-06-21T03:51:49.460Z,18.23
2018-06-21T03:54:24.571Z,16.70
2018-06-21T03:56:59.478Z,17.07
2018-06-21T03:59:34.211Z,16.40
2018-06-21T04:02:09.051Z,16.77
2018-06-21T04:04:43.826Z,16.00
2018-06-21T04:07:18.756Z,19.03
2018-06-21T04:09:53.583Z,21.30
2018-06-21T04:12:29.048Z,14.50
2018-06-21T04:15:04.137Z,17.03
2018-06-21T04:17:38.952Z,14.70
2018-06-21T04:20:13.986Z,16.30
2018-06-21T04:22:48.788Z,22.07
2018-06-21T04:25:23.740Z,13.37
2018-06-21T04:27:59.086Z,18.63
2018-06-21T04:30:33.710Z,18.50
2018-06-21T04:33:08.768Z,12.43
2018-06-21T04:35:43.794Z,14.30
2018-06-21T04:38:19.032Z,19.27
2018-06-21T04:40:54.071Z,14.03
2018-06-21T04:43:29.187Z,15.70
2018-06-21T04:46:04.021Z,12.13
2018-06-21T04:48:39.242Z,12.23
2018-06-21T04:51:13.998Z,15.97
2018-06-21T04:53:49.006Z,17.30
2018-06-21T04:56:23.938Z,15.10
2018-06-21T04:58:58.777Z,18.00
2018-06-21T05:01:33.719Z,15.40
2018-06-21T05:04:08.935Z,17.63
2018-06-21T05:06:43.967Z,19.70
2018-06-21T05:09:19.029Z,21.47
2018-06-21T05:11:54.366Z,27.47
2018-06-21T05:14:29.241Z,24.03
2018-06-21T05:17:04.113Z,23.70
2018-06-21T05:19:39.119Z,25.53
2018-06-21T05:22:14.032Z,27.10
2018-06-21T05:24:48.994Z,33.70
2018-06-21T05:27:24.444Z,29.27
2018-06-21T05:30:00.059Z,33.73
2018-06-21T05:32:35.421Z,36.90
2018-06-21T05:35:10.668Z,29.80
2018-06-21T05:37:45.427Z,36.77
2018-06-21T05:40:27.790Z,37.20
2018-06-21T05:43:03.513Z,33.63
2018-06-21T05:45:38.413Z,32.40
2018-06-21T05:48:13.580Z,35.27
2018-06-21T05:50:48.247Z,33.13
2018-06-21T05:53:23.525Z,39.40
2018-06-21T05:55:58.502Z,43.53
2018-06-21T05:58:33.325Z,38.40
2018-06-21T06:01:08.463Z,39.30
2018-06-21T06:03:43.598Z,44.47
2018-06-21T06:06:18.999Z,38.90
2018-06-21T06:08:54.139Z,40.13
2018-06-21T06:11:28.766Z,42.93
2018-06-21T06:14:04.457Z,37.90
2018-06-21T06:16:39.237Z,38.67
2018-06-21T06:19:14.026Z,40.57
2018-06-21T06:21:48.863Z,36.67
2018-06-21T06:24:23.937Z,38.00
2018-06-21T06:26:58.777Z,32.93
2018-06-21T06:29:33.620Z,33.67
2018-06-21T06:32:08.334Z,34.73
2018-06-21T06:34:43.421Z,29.60
2018-06-21T06:37:18.450Z,29.50
2018-06-21T06:39:53.331Z,28.87
2018-06-21T06:42:28.300Z,31.20
2018-06-21T06:45:03.147Z,27.57
2018-06-21T06:47:37.931Z,25.70
2018-06-21T06:50:12.889Z,24.73
2018-06-21T06:52:47.969Z,24.73
2018-06-21T06:55:22.770Z,24.07
2018-06-21T06:57:57.679Z,22.93
2018-06-21T07:00:32.104Z,25.30
2018-06-21T07:03:07.002Z,24.40
2018-06-21T07:05:42.150Z,26.30
2018-06-21T07:08:19.216Z,24.30
2018-06-21T07:10:54.395Z,25.07
2018-06-21T07:13:29.309Z,22.83
2018-06-21T07:16:04.216Z,23.63
2018-06-21T07:18:39.727Z,21.30
2018-06-21T07:21:15.206Z,21.87
2018-06-21T07:23:50.476Z,20.60
2018-06-21T07:26:25.467Z,20.47
2018-06-21T07:29:00.898Z,21.57
2018-06-21T07:31:36.275Z,21.40
2018-06-21T07:34:11.329Z,20.47
2018-06-21T07:36:46.331Z,21.30
2018-06-21T07:39:21.881Z,19.40
2018-06-21T07:41:57.020Z,23.67
2018-06-21T07:44:31.948Z,20.93
2018-06-21T07:47:07.022Z,19.67
2018-06-21T07:49:42.063Z,14.97
2018-06-21T07:52:17.552Z,19.80
2018-06-21T07:54:52.608Z,13.60
2018-06-21T07:57:27.574Z,14.97
2018-06-21T08:00:02.503Z,9.33
2018-06-21T08:02:37.529Z,11.03
2018-06-21T08:05:12.803Z,14.00
2018-06-21T08:07:48.046Z,10.30
2018-06-21T08:10:23.254Z,8.70
2018-06-21T08:12:57.798Z,8.63
2018-06-21T08:15:33.137Z,13.20
2018-06-21T08:18:08.214Z,11.60
2018-06-21T08:20:43.475Z,7.80
2018-06-21T08:23:18.502Z,8.60
2018-06-21T08:25:53.527Z,7.40
2018-06-21T08:28:28.400Z,10.17
2018-06-21T08:31:03.396Z,10.70
2018-06-21T08:33:38.603Z,7.03
2018-06-21T08:36:13.460Z,8.40
2018-06-21T08:38:48.398Z,6.40
2018-06-21T08:41:24.061Z,8.93
2018-06-21T08:43:58.998Z,8.30
2018-06-21T08:46:33.858Z,9.90
2018-06-21T08:49:08.704Z,7.10
2018-06-21T08:51:43.621Z,9.03
2018-06-21T08:54:18.659Z,11.80
2018-06-21T08:56:53.612Z,7.47
2018-06-21T08:59:29.075Z,7.93
2018-06-21T09:02:04.219Z,9.77
2018-06-21T09:04:39.913Z,8.07
2018-06-21T09:07:14.860Z,7.10
2018-06-21T09:09:50.020Z,8.70
2018-06-21T09:12:29.106Z,9.33
2018-06-21T09:15:05.075Z,14.13
2018-06-21T09:17:40.183Z,7.30
2018-06-21T09:20:14.990Z,6.00
2018-06-21T09:22:49.953Z,12.43
2018-06-21T09:25:25.036Z,8.63
2018-06-21T09:28:00.027Z,9.70
2018-06-21T09:30:35.223Z,7.37
2018-06-21T09:33:10.202Z,9.70
2018-06-21T09:35:45.779Z,6.90
2018-06-21T09:38:26.256Z,7.47
2018-06-21T09:41:06.252Z,9.07
2018-06-21T09:43:50.290Z,8.27
2018-06-21T09:47:26.220Z,12.20
2018-06-21T09:50:01.926Z,8.07
2018-06-21T09:52:37.040Z,10.17
2018-06-21T09:55:12.102Z,7.07
2018-06-21T09:57:47.312Z,6.97
2018-06-21T10:01:30.670Z,5.60
2018-06-21T10:04:06.149Z,11.43
2018-06-21T10:06:41.547Z,6.27
2018-06-21T10:09:16.390Z,14.10
2018-06-21T10:11:51.389Z,10.00
2018-06-21T10:14:26.491Z,12.77
2018-06-21T10:17:01.608Z,8.03
2018-06-21T10:19:37.276Z,9.60
2018-06-21T10:22:12.523Z,10.80
2018-06-21T10:24:47.167Z,7.83
2018-06-21T10:27:21.874Z,8.40
2018-06-21T10:29:56.671Z,8.43
2018-06-21T10:32:31.720Z,8.07
2018-06-21T10:35:06.529Z,6.87
2018-06-21T10:37:41.462Z,7.77
2018-06-21T10:40:16.496Z,8.03
2018-06-21T10:42:51.455Z,10.77
2018-06-21T10:45:26.605Z,11.78
2018-06-21T10:48:01.943Z,7.03
2018-06-21T10:50:38.423Z,9.40
2018-06-21T10:53:13.375Z,3.97
2018-06-21T10:55:48.263Z,8.30
2018-06-21T10:58:23.792Z,9.93
2018-06-21T11:00:58.877Z,7.13
2018-06-21T11:03:34.007Z,14.10
2018-06-21T11:06:09.097Z,4.60
2018-06-21T11:08:44.164Z,6.93
2018-06-21T11:11:19.597Z,7.90
2018-06-21T11:13:54.501Z,9.67
2018-06-21T11:16:29.438Z,9.67
2018-06-21T11:19:04.498Z,4.10
2018-06-21T11:21:40.056Z,11.13
2018-06-21T11:24:15.236Z,5.80
2018-06-21T11:26:50.246Z,10.90
2018-06-21T11:29:25.022Z,5.40
2018-06-21T11:31:59.956Z,12.27
2018-06-21T11:34:34.889Z,7.93
2018-06-21T11:37:10.251Z,11.25
2018-06-21T11:39:45.410Z,5.00
2018-06-21T11:42:20.578Z,5.23
2018-06-21T11:44:55.528Z,5.60
2018-06-21T11:47:30.727Z,4.15
2018-06-21T11:50:06.122Z,5.05
2018-06-21T11:52:41.051Z,4.80
2018-06-21T11:55:16.055Z,13.40
2018-06-21T11:57:51.092Z,5.07
2018-06-21T12:00:25.976Z,2.67
2018-06-21T12:03:01.320Z,7.55
2018-06-21T12:05:36.368Z,5.67
2018-06-21T12:08:11.169Z,8.50
2018-06-21T12:10:46.487Z,9.18
2018-06-21T12:13:15.688Z,5.07
2018-06-21T12:15:44.930Z,6.00
2018-06-21T12:18:14.375Z,11.90
2018-06-21T12:20:43.869Z,7.10
2018-06-21T12:23:13.459Z,14.67
2018-06-21T12:25:42.954Z,11.17
2018-06-21T12:28:12.105Z,6.07
2018-06-21T12:30:41.988Z,4.93
2018-06-21T12:33:11.342Z,7.30
2018-06-21T12:35:41.031Z,10.80
2018-06-21T12:38:10.637Z,4.50
2018-06-21T12:40:39.935Z,5.63
2018-06-21T12:43:09.571Z,6.10
2018-06-21T12:45:39.225Z,8.60
2018-06-21T12:48:08.521Z,12.23
2018-06-21T12:50:37.682Z,7.87
2018-06-21T12:53:07.130Z,8.15
2018-06-21T12:55:37.043Z,5.83
2018-06-21T12:58:06.403Z,23.00
2018-06-21T13:00:36.861Z,11.40
2018-06-21T13:03:06.185Z,6.27
2018-06-21T13:05:35.423Z,6.33
2018-06-21T13:08:04.927Z,7.80
2018-06-21T13:10:45.587Z,13.47
2018-06-21T13:13:21.379Z,5.80
2018-06-21T13:15:50.910Z,10.03
2018-06-21T13:18:20.894Z,6.97
2018-06-21T13:20:55.904Z,9.60
2018-06-21T13:23:31.273Z,9.17
2018-06-21T13:26:06.013Z,12.57
2018-06-21T13:28:34.999Z,8.03
2018-06-21T13:31:04.557Z,5.20
2018-06-21T13:33:40.029Z,11.73
2018-06-21T13:36:15.061Z,8.53
2018-06-21T13:38:50.278Z,8.60
2018-06-21T13:41:25.091Z,9.27
2018-06-21T13:43:59.976Z,7.60
2018-06-21T13:46:34.944Z,7.73
2018-06-21T13:49:10.244Z,8.23
2018-06-21T13:51:45.175Z,13.00
2018-06-21T13:54:20.209Z,9.73
2018-06-21T13:56:54.750Z,7.80
2018-06-21T13:59:29.879Z,8.63
2018-06-21T14:02:04.724Z,5.90
2018-06-21T14:04:43.876Z,10.07
2018-06-21T14:07:19.170Z,8.60
2018-06-21T14:09:54.230Z,4.17
2018-06-21T14:12:29.159Z,7.30
2018-06-21T14:15:04.066Z,11.13
2018-06-21T14:17:38.984Z,8.13
2018-06-21T14:20:14.137Z,6.67
2018-06-21T14:22:49.343Z,4.10
2018-06-21T14:25:24.031Z,10.50
2018-06-21T14:27:58.830Z,9.50
2018-06-21T14:30:34.151Z,10.30
2018-06-21T14:33:09.090Z,7.67
2018-06-21T14:35:44.446Z,11.13
2018-06-21T14:38:19.852Z,4.53
2018-06-21T14:40:54.645Z,6.03
2018-06-21T14:43:29.852Z,5.43
2018-06-21T14:46:04.819Z,5.67
2018-06-21T14:48:39.794Z,14.30
2018-06-21T14:51:15.052Z,6.20
2018-06-21T14:53:50.063Z,9.87
2018-06-21T14:56:25.298Z,9.53
2018-06-21T14:58:54.665Z,4.77
2018-06-21T15:01:29.631Z,6.77
2018-06-21T15:04:05.286Z,7.33
2018-06-21T15:06:40.327Z,6.57
2018-06-21T15:09:15.226Z,5.37
2018-06-21T15:11:49.991Z,9.47
2018-06-21T15:14:24.927Z,7.20
2018-06-21T15:16:59.998Z,9.67
2018-06-21T15:19:34.772Z,8.60
2018-06-21T15:22:10.087Z,9.37
2018-06-21T15:24:45.309Z,5.73
2018-06-21T15:27:20.427Z,7.77
2018-06-21T15:29:55.520Z,8.50
2018-06-21T15:32:30.577Z,6.80
2018-06-21T15:35:05.299Z,9.17
2018-06-21T15:37:41.227Z,5.50
2018-06-21T15:40:16.504Z,4.90
2018-06-21T15:42:51.824Z,4.20
2018-06-21T15:45:26.782Z,9.23
2018-06-21T15:48:02.051Z,5.87
2018-06-21T15:50:37.145Z,3.93
2018-06-21T15:53:11.982Z,11.80
2018-06-21T15:55:47.936Z,6.33
2018-06-21T15:58:22.955Z,7.13
2018-06-21T16:00:57.926Z,3.80
2018-06-21T16:03:33.088Z,7.70
2018-06-21T16:06:08.748Z,4.63
2018-06-21T16:08:43.766Z,15.90
2018-06-21T16:11:20.078Z,10.77
2018-06-21T16:13:55.214Z,5.30
2018-06-21T16:16:30.409Z,8.67
2018-06-21T16:19:05.403Z,6.10
2018-06-21T16:21:40.722Z,9.13
2018-06-21T16:24:15.699Z,6.93
2018-06-21T16:26:50.779Z,6.70
2018-06-21T16:29:27.493Z,15.80
2018-06-21T16:31:56.933Z,5.07
2018-06-21T16:34:32.809Z,7.10
2018-06-21T16:37:08.794Z,6.43
2018-06-21T16:39:38.139Z,8.30
2018-06-21T16:42:13.629Z,12.30
2018-06-21T16:44:48.828Z,5.57
2018-06-21T16:47:24.005Z,6.33
2018-06-21T16:49:59.051Z,8.47
2018-06-21T16:52:34.128Z,7.47
2018-06-21T16:55:08.774Z,8.40
2018-06-21T16:57:44.069Z,7.63
2018-06-21T17:00:19.084Z,4.43
2018-06-21T17:02:53.870Z,8.53
2018-06-21T17:05:28.818Z,5.67
2018-06-21T17:08:03.997Z,4.73
2018-06-21T17:10:39.232Z,6.40
2018-06-21T17:13:14.034Z,9.70
2018-06-21T17:15:49.126Z,6.60
2018-06-21T17:18:24.651Z,8.40
2018-06-21T17:21:00.987Z,6.10
2018-06-21T17:23:36.328Z,7.97
2018-06-21T17:26:11.733Z,8.47
2018-06-21T17:28:47.488Z,9.98
2018-06-21T17:31:22.174Z,9.17
2018-06-21T17:33:57.781Z,9.77
2018-06-21T17:36:34.384Z,11.20
2018-06-21T17:39:11.346Z,9.00
2018-06-21T17:41:47.045Z,7.63
2018-06-21T17:44:23.912Z,7.30
2018-06-21T17:47:00.958Z,4.70
2018-06-21T17:49:36.253Z,4.17
2018-06-21T17:52:11.330Z,6.00
2018-06-21T17:54:49.218Z,6.83
2018-06-21T17:57:26.521Z,6.40
2018-06-21T18:00:02.115Z,8.63
2018-06-21T18:02:37.549Z,12.60
2018-06-21T18:05:12.849Z,7.83
2018-06-21T18:07:48.283Z,6.77
2018-06-21T18:10:24.575Z,10.53
2018-06-21T18:13:00.982Z,7.77
2018-06-21T18:15:36.222Z,8.43
2018-06-21T18:18:18.507Z,5.30
2018-06-21T18:20:56.408Z,10.77
2018-06-21T18:23:32.723Z,7.37
2018-06-21T18:26:09.460Z,4.67
2018-06-21T18:28:44.639Z,4.73
2018-06-21T18:31:14.341Z,5.77
2018-06-21T18:33:43.704Z,6.13
2018-06-21T18:36:14.476Z,10.60
2018-06-21T18:38:44.839Z,5.33
2018-06-21T18:41:14.701Z,22.27
2018-06-21T18:43:44.347Z,5.93
2018-06-21T18:46:14.388Z,4.70
2018-06-21T18:48:43.860Z,4.23
2018-06-21T18:51:13.707Z,6.80
2018-06-21T18:53:45.427Z,6.90
2018-06-21T18:56:15.531Z,4.07
2018-06-21T18:58:45.508Z,2.80
2018-06-21T19:01:15.482Z,6.93
2018-06-21T19:03:44.797Z,5.20
2018-06-21T19:06:19.502Z,8.00
2018-06-21T19:08:53.556Z,6.47
2018-06-21T19:11:27.993Z,5.10
2018-06-21T19:13:57.684Z,6.10
2018-06-21T19:16:27.147Z,6.90
2018-06-21T19:18:56.006Z,7.40
2018-06-21T19:21:25.547Z,3.40
2018-06-21T19:23:55.368Z,5.03
2018-06-21T19:26:25.040Z,15.70
2018-06-21T19:28:54.286Z,13.67
2018-06-21T19:31:23.526Z,5.63
2018-06-21T19:33:53.060Z,11.90
2018-06-21T19:36:21.810Z,17.17
2018-06-21T19:38:51.172Z,5.73
2018-06-21T19:41:20.115Z,6.20
2018-06-21T19:43:49.326Z,8.83
2018-06-21T19:46:18.539Z,15.33
2018-06-21T19:48:47.971Z,9.83
2018-06-21T19:51:17.229Z,10.20
2018-06-21T19:53:46.593Z,12.17
2018-06-21T19:56:16.112Z,9.60
2018-06-21T19:58:45.461Z,16.00
2018-06-21T20:01:20.331Z,11.07
2018-06-21T20:03:55.571Z,11.43
2018-06-21T20:06:30.759Z,16.27
2018-06-21T20:09:08.342Z,11.50
2018-06-21T20:11:43.236Z,10.40
2018-06-21T20:14:18.406Z,12.60
2018-06-21T20:16:53.204Z,8.13
2018-06-21T20:19:28.608Z,10.77
2018-06-21T20:22:10.330Z,13.10
2018-06-21T20:24:39.791Z,12.73
2018-06-21T20:27:14.706Z,7.33
2018-06-21T20:29:49.896Z,15.63
2018-06-21T20:32:24.812Z,10.00
2018-06-21T20:34:59.920Z,11.23
2018-06-21T20:37:34.987Z,10.97
2018-06-21T20:40:10.224Z,7.50
2018-06-21T20:42:45.555Z,10.63
2018-06-21T20:45:20.444Z,8.60
2018-06-21T20:47:55.434Z,14.00
2018-06-21T20:50:30.757Z,7.43
2018-06-21T20:53:05.973Z,8.20
2018-06-21T20:55:41.294Z,12.63
2018-06-21T20:58:16.223Z,7.13
2018-06-21T21:00:51.185Z,11.00
2018-06-21T21:03:26.296Z,7.07
2018-06-21T21:06:02.322Z,7.93
2018-06-21T21:08:37.664Z,12.97
2018-06-21T21:11:12.628Z,9.37
2018-06-21T21:13:47.664Z,7.07
2018-06-21T21:16:18.906Z,7.90
2018-06-21T21:18:53.720Z,7.33
2018-06-21T21:21:28.710Z,7.70
2018-06-21T21:24:03.797Z,11.50
2018-06-21T21:26:39.153Z,7.63
2018-06-21T21:29:14.327Z,7.03
2018-06-21T21:31:49.245Z,7.27
2018-06-21T21:34:24.495Z,9.10
2018-06-21T21:36:59.549Z,7.60
2018-06-21T21:39:34.899Z,9.17
2018-06-21T21:42:10.024Z,12.10
2018-06-21T21:44:45.044Z,9.23
2018-06-21T21:47:20.268Z,13.60
2018-06-21T21:49:55.784Z,12.63
2018-06-21T21:52:30.828Z,13.60
2018-06-21T21:55:05.830Z,7.10
2018-06-21T21:57:40.761Z,9.90
2018-06-21T22:00:41.837Z,12.07
2018-06-21T22:03:16.590Z,10.87
2018-06-21T22:05:51.797Z,12.50
2018-06-21T22:08:27.167Z,10.87
2018-06-21T22:11:02.102Z,17.10
2018-06-21T22:13:37.006Z,10.93
2018-06-21T22:16:12.033Z,10.43
2018-06-21T22:18:46.907Z,14.63
2018-06-21T22:21:21.788Z,11.90
2018-06-21T22:23:56.943Z,10.97
2018-06-21T22:26:31.532Z,13.20
2018-06-21T22:29:06.680Z,19.53
2018-06-21T22:31:41.657Z,11.53
2018-06-21T22:34:16.607Z,15.40
2018-06-21T22:36:51.627Z,11.00
2018-06-21T22:39:26.717Z,13.03
2018-06-21T22:42:01.535Z,13.20
2018-06-21T22:44:36.573Z,11.73
2018-06-21T22:47:11.610Z,11.47
2018-06-21T22:49:46.593Z,13.77
2018-06-21T22:52:21.518Z,11.07
2018-06-21T22:54:56.483Z,10.67
2018-06-21T22:57:31.748Z,14.53
2018-06-21T23:00:06.888Z,17.23
2018-06-21T23:02:42.337Z,11.43
2018-06-21T23:05:17.078Z,9.00
2018-06-21T23:07:52.122Z,9.40
2018-06-21T23:10:27.359Z,11.90
2018-06-21T23:13:02.087Z,10.23
2018-06-21T23:15:37.461Z,13.97
2018-06-21T23:18:14.362Z,9.30
2018-06-21T23:20:49.192Z,7.27
2018-06-21T23:23:24.144Z,7.83
2018-06-21T23:25:59.768Z,12.90
2018-06-21T23:28:35.242Z,9.77
2018-06-21T23:31:10.203Z,8.70
2018-06-21T23:33:45.568Z,12.53
2018-06-21T23:36:20.386Z,9.93
2018-06-21T23:38:55.132Z,9.17
2018-06-21T23:41:30.108Z,10.03
2018-06-21T23:44:04.804Z,9.67
2018-06-21T23:46:39.999Z,11.87
2018-06-21T23:49:15.264Z,8.50
2018-06-21T23:51:50.284Z,20.90
2018-06-21T23:54:25.405Z,10.53
2018-06-21T23:57:00.321Z,9.90
2018-06-21T23:59:35.060Z,10.97
